Terminal Aerodrome Forecast
Issued by NWS Billings, MT

Home | Current Version | Previous Version | Text Only | Print | Product List | Glossary On
Versions: 1 2 3 4 5 6 7 8 9 10 11 12 13 14 15 16 17 18 19 20 21 22 23 24 25 26 27 28 29 30 31 32
000
FTUS45 KBYZ 181730
TAFBIL
TAF
KBIL 181730Z 1818/1918 25013KT P6SM FEW045 BKN060 OVC090
     FM182000 25014G21KT P6SM VCTS BKN090CB
     FM190200 27011KT P6SM VCSH BKN080
     FM190600 27010KT P6SM SCT100
     FM191200 27014KT P6SM FEW100=

USA.gov is the U.S. government's official web portal to all federal, state and local government web resources and services.